sensor_id;sensor_type;location;lat;lon;timestamp;temperature;humidity
8565;DHT22;4320;51.498;6.556;2023-06-22T00:01:48;23.40;1.00
8565;DHT22;4320;51.498;6.556;2023-06-22T00:04:14;23.20;1.00
8565;DHT22;4320;51.498;6.556;2023-06-22T00:06:39;23.20;1.00
8565;DHT22;4320;51.498;6.556;2023-06-22T00:09:05;23.10;1.00
8565;DHT22;4320;51.498;6.556;2023-06-22T00:11:32;23.10;1.00
8565;DHT22;4320;51.498;6.556;2023-06-22T00:13:59;23.10;1.00
8565;DHT22;4320;51.498;6.556;2023-06-22T00:16:24;23.10;1.00
8565;DHT22;4320;51.498;6.556;2023-06-22T00:18:50;23.10;1.00
8565;DHT22;4320;51.498;6.556;2023-06-22T00:21:16;23.20;1.00
8565;DHT22;4320;51.498;6.556;2023-06-22T00:23:41;23.00;1.00
8565;DHT22;4320;51.498;6.556;2023-06-22T00:26:07;23.00;1.00
8565;DHT22;4320;51.498;6.556;2023-06-22T00:28:34;23.00;1.00
8565;DHT22;4320;51.498;6.556;2023-06-22T00:30:59;23.00;1.00
8565;DHT22;4320;51.498;6.556;2023-06-22T00:33:26;23.00;1.00
8565;DHT22;4320;51.498;6.556;2023-06-22T00:35:52;23.00;1.00
8565;DHT22;4320;51.498;6.556;2023-06-22T00:38:19;23.10;1.00
8565;DHT22;4320;51.498;6.556;2023-06-22T00:40:45;23.20;1.00
8565;DHT22;4320;51.498;6.556;2023-06-22T00:43:10;23.10;1.00
8565;DHT22;4320;51.498;6.556;2023-06-22T00:45:38;23.10;1.00
8565;DHT22;4320;51.498;6.556;2023-06-22T00:48:04;23.00;1.00
8565;DHT22;4320;51.498;6.556;2023-06-22T00:50:32;22.90;1.00
8565;DHT22;4320;51.498;6.556;2023-06-22T00:53:06;22.80;1.00
8565;DHT22;4320;51.498;6.556;2023-06-22T00:55:41;22.70;1.00
8565;DHT22;4320;51.498;6.556;2023-06-22T00:58:09;22.70;1.00
8565;DHT22;4320;51.498;6.556;2023-06-22T01:00:36;22.70;1.00
8565;DHT22;4320;51.498;6.556;2023-06-22T01:03:03;22.80;1.00
8565;DHT22;4320;51.498;6.556;2023-06-22T01:05:29;22.80;1.00
8565;DHT22;4320;51.498;6.556;2023-06-22T01:13:23;23.00;1.00
8565;DHT22;4320;51.498;6.556;2023-06-22T01:18:42;22.90;1.00
8565;DHT22;4320;51.498;6.556;2023-06-22T01:21:10;22.90;1.00
8565;DHT22;4320;51.498;6.556;2023-06-22T01:29:24;22.80;1.00
8565;DHT22;4320;51.498;6.556;2023-06-22T01:31:54;22.90;1.00
8565;DHT22;4320;51.498;6.556;2023-06-22T01:34:22;22.80;1.00
8565;DHT22;4320;51.498;6.556;2023-06-22T01:36:49;22.90;1.00
8565;DHT22;4320;51.498;6.556;2023-06-22T01:39:16;22.80;1.00
8565;DHT22;4320;51.498;6.556;2023-06-22T01:41:43;22.70;1.00
8565;DHT22;4320;51.498;6.556;2023-06-22T01:44:10;22.60;1.00
8565;DHT22;4320;51.498;6.556;2023-06-22T01:46:37;22.50;1.00
8565;DHT22;4320;51.498;6.556;2023-06-22T01:49:05;22.60;1.00
8565;DHT22;4320;51.498;6.556;2023-06-22T01:51:31;22.50;1.00
8565;DHT22;4320;51.498;6.556;2023-06-22T01:53:57;22.60;1.00
8565;DHT22;4320;51.498;6.556;2023-06-22T01:56:23;22.60;1.00
8565;DHT22;4320;51.498;6.556;2023-06-22T01:59:08;22.70;1.00
8565;DHT22;4320;51.498;6.556;2023-06-22T02:01:47;22.60;1.00
8565;DHT22;4320;51.498;6.556;2023-06-22T02:04:21;22.60;1.00
8565;DHT22;4320;51.498;6.556;2023-06-22T02:06:52;22.50;1.00
8565;DHT22;4320;51.498;6.556;2023-06-22T02:09:21;22.40;1.00
8565;DHT22;4320;51.498;6.556;2023-06-22T02:11:51;22.40;1.00
8565;DHT22;4320;51.498;6.556;2023-06-22T02:14:19;22.60;1.00
8565;DHT22;4320;51.498;6.556;2023-06-22T02:16:46;22.60;1.00
8565;DHT22;4320;51.498;6.556;2023-06-22T02:19:11;22.60;1.00
8565;DHT22;4320;51.498;6.556;2023-06-22T02:21:37;22.50;1.00
8565;DHT22;4320;51.498;6.556;2023-06-22T02:24:04;22.50;1.00
8565;DHT22;4320;51.498;6.556;2023-06-22T02:26:30;22.60;1.00
8565;DHT22;4320;51.498;6.556;2023-06-22T02:28:56;22.70;1.00
8565;DHT22;4320;51.498;6.556;2023-06-22T02:31:21;22.60;1.00
8565;DHT22;4320;51.498;6.556;2023-06-22T02:33:47;22.60;1.00
8565;DHT22;4320;51.498;6.556;2023-06-22T02:36:13;22.70;1.00
8565;DHT22;4320;51.498;6.556;2023-06-22T02:38:43;22.70;1.00
8565;DHT22;4320;51.498;6.556;2023-06-22T02:41:16;22.60;1.00
8565;DHT22;4320;51.498;6.556;2023-06-22T02:43:45;22.50;1.00
8565;DHT22;4320;51.498;6.556;2023-06-22T02:46:11;22.50;1.00
8565;DHT22;4320;51.498;6.556;2023-06-22T02:48:39;22.50;1.00
8565;DHT22;4320;51.498;6.556;2023-06-22T02:51:04;22.60;1.00
8565;DHT22;4320;51.498;6.556;2023-06-22T02:53:30;22.60;1.00
8565;DHT22;4320;51.498;6.556;2023-06-22T02:55:55;22.60;1.00
8565;DHT22;4320;51.498;6.556;2023-06-22T02:58:21;22.60;1.00
8565;DHT22;4320;51.498;6.556;2023-06-22T03:00:47;22.50;1.00
8565;DHT22;4320;51.498;6.556;2023-06-22T03:03:12;22.40;1.00
8565;DHT22;4320;51.498;6.556;2023-06-22T03:05:38;22.50;1.00
8565;DHT22;4320;51.498;6.556;2023-06-22T03:08:05;22.50;1.00
8565;DHT22;4320;51.498;6.556;2023-06-22T03:10:31;22.50;1.00
8565;DHT22;4320;51.498;6.556;2023-06-22T03:12:56;22.50;1.00
8565;DHT22;4320;51.498;6.556;2023-06-22T03:15:22;22.40;1.00
8565;DHT22;4320;51.498;6.556;2023-06-22T03:17:48;22.30;1.00
8565;DHT22;4320;51.498;6.556;2023-06-22T03:20:13;22.40;1.00
8565;DHT22;4320;51.498;6.556;2023-06-22T03:22:40;22.40;1.00
8565;DHT22;4320;51.498;6.556;2023-06-22T03:25:09;22.40;1.00
8565;DHT22;4320;51.498;6.556;2023-06-22T03:27:39;22.30;1.00
8565;DHT22;4320;51.498;6.556;2023-06-22T03:30:06;22.30;1.00
8565;DHT22;4320;51.498;6.556;2023-06-22T03:32:32;22.40;1.00
8565;DHT22;4320;51.498;6.556;2023-06-22T03:34:58;22.40;1.00
8565;DHT22;4320;51.498;6.556;2023-06-22T03:37:25;22.30;1.00
8565;DHT22;4320;51.498;6.556;2023-06-22T03:39:51;22.30;1.00
8565;DHT22;4320;51.498;6.556;2023-06-22T03:42:17;22.20;1.00
8565;DHT22;4320;51.498;6.556;2023-06-22T03:44:42;22.20;1.00
8565;DHT22;4320;51.498;6.556;2023-06-22T03:47:08;22.20;1.00
8565;DHT22;4320;51.498;6.556;2023-06-22T03:49:34;22.20;1.00
8565;DHT22;4320;51.498;6.556;2023-06-22T03:52:01;22.20;1.00
8565;DHT22;4320;51.498;6.556;2023-06-22T03:54:30;22.20;1.00
8565;DHT22;4320;51.498;6.556;2023-06-22T03:56:59;22.10;1.00
8565;DHT22;4320;51.498;6.556;2023-06-22T03:59:25;22.10;1.00
8565;DHT22;4320;51.498;6.556;2023-06-22T04:01:50;22.20;1.00
8565;DHT22;4320;51.498;6.556;2023-06-22T04:04:17;22.10;1.00
8565;DHT22;4320;51.498;6.556;2023-06-22T04:06:43;22.00;1.00
8565;DHT22;4320;51.498;6.556;2023-06-22T04:09:09;22.00;1.00
8565;DHT22;4320;51.498;6.556;2023-06-22T04:11:34;22.10;1.00
8565;DHT22;4320;51.498;6.556;2023-06-22T04:14:00;22.10;1.00
8565;DHT22;4320;51.498;6.556;2023-06-22T04:16:25;22.10;1.00
8565;DHT22;4320;51.498;6.556;2023-06-22T04:18:51;22.20;1.00
8565;DHT22;4320;51.498;6.556;2023-06-22T04:21:17;22.20;1.00
8565;DHT22;4320;51.498;6.556;2023-06-22T04:23:45;22.20;1.00
8565;DHT22;4320;51.498;6.556;2023-06-22T04:26:11;22.10;1.00
8565;DHT22;4320;51.498;6.556;2023-06-22T04:28:37;22.20;1.00
8565;DHT22;4320;51.498;6.556;2023-06-22T04:31:03;22.20;1.00
8565;DHT22;4320;51.498;6.556;2023-06-22T04:33:29;22.30;1.00
8565;DHT22;4320;51.498;6.556;2023-06-22T04:35:55;22.40;1.00
8565;DHT22;4320;51.498;6.556;2023-06-22T04:38:23;22.40;1.00
8565;DHT22;4320;51.498;6.556;2023-06-22T04:40:49;22.50;1.00
8565;DHT22;4320;51.498;6.556;2023-06-22T04:43:15;22.40;1.00
8565;DHT22;4320;51.498;6.556;2023-06-22T04:45:41;22.40;1.00
8565;DHT22;4320;51.498;6.556;2023-06-22T04:48:07;22.40;1.00
8565;DHT22;4320;51.498;6.556;2023-06-22T04:50:34;22.40;1.00
8565;DHT22;4320;51.498;6.556;2023-06-22T04:52:59;22.40;1.00
8565;DHT22;4320;51.498;6.556;2023-06-22T04:55:25;22.40;1.00
8565;DHT22;4320;51.498;6.556;2023-06-22T04:57:51;22.40;1.00
8565;DHT22;4320;51.498;6.556;2023-06-22T05:00:18;22.40;1.00
8565;DHT22;4320;51.498;6.556;2023-06-22T05:02:45;22.40;1.00
8565;DHT22;4320;51.498;6.556;2023-06-22T05:05:12;22.60;1.00
8565;DHT22;4320;51.498;6.556;2023-06-22T05:07:45;22.60;1.00
8565;DHT22;4320;51.498;6.556;2023-06-22T05:10:14;22.40;1.00
8565;DHT22;4320;51.498;6.556;2023-06-22T05:12:40;22.40;1.00
8565;DHT22;4320;51.498;6.556;2023-06-22T05:15:07;22.40;1.00
8565;DHT22;4320;51.498;6.556;2023-06-22T05:17:33;22.30;1.00
8565;DHT22;4320;51.498;6.556;2023-06-22T05:19:59;22.30;1.00
8565;DHT22;4320;51.498;6.556;2023-06-22T05:22:24;22.30;1.00
8565;DHT22;4320;51.498;6.556;2023-06-22T05:24:50;22.30;1.00
8565;DHT22;4320;51.498;6.556;2023-06-22T05:27:16;22.20;1.00
8565;DHT22;4320;51.498;6.556;2023-06-22T05:29:42;22.30;1.00
8565;DHT22;4320;51.498;6.556;2023-06-22T05:32:10;22.30;1.00
8565;DHT22;4320;51.498;6.556;2023-06-22T05:34:36;22.30;1.00
8565;DHT22;4320;51.498;6.556;2023-06-22T05:37:02;22.30;1.00
8565;DHT22;4320;51.498;6.556;2023-06-22T05:39:28;22.30;1.00
8565;DHT22;4320;51.498;6.556;2023-06-22T05:41:54;22.20;1.00
8565;DHT22;4320;51.498;6.556;2023-06-22T05:44:19;22.30;1.00
8565;DHT22;4320;51.498;6.556;2023-06-22T05:46:45;22.40;1.00
8565;DHT22;4320;51.498;6.556;2023-06-22T05:49:14;22.40;1.00
8565;DHT22;4320;51.498;6.556;2023-06-22T05:51:40;22.40;1.00
8565;DHT22;4320;51.498;6.556;2023-06-22T05:54:06;22.40;1.00
8565;DHT22;4320;51.498;6.556;2023-06-22T05:56:33;22.40;1.00
8565;DHT22;4320;51.498;6.556;2023-06-22T05:58:59;22.40;1.00
8565;DHT22;4320;51.498;6.556;2023-06-22T06:01:24;22.40;1.00
8565;DHT22;4320;51.498;6.556;2023-06-22T06:03:51;22.30;1.00
8565;DHT22;4320;51.498;6.556;2023-06-22T06:06:18;22.30;1.00
8565;DHT22;4320;51.498;6.556;2023-06-22T06:08:46;22.30;1.00
8565;DHT22;4320;51.498;6.556;2023-06-22T06:11:12;22.20;1.00
8565;DHT22;4320;51.498;6.556;2023-06-22T06:13:38;22.20;1.00
8565;DHT22;4320;51.498;6.556;2023-06-22T06:16:03;22.10;1.00
8565;DHT22;4320;51.498;6.556;2023-06-22T06:18:29;22.30;1.00
8565;DHT22;4320;51.498;6.556;2023-06-22T06:20:55;22.30;1.00
8565;DHT22;4320;51.498;6.556;2023-06-22T06:23:20;22.40;1.00
8565;DHT22;4320;51.498;6.556;2023-06-22T06:25:49;22.30;1.00
8565;DHT22;4320;51.498;6.556;2023-06-22T06:28:14;22.30;1.00
8565;DHT22;4320;51.498;6.556;2023-06-22T06:30:40;22.00;1.00
8565;DHT22;4320;51.498;6.556;2023-06-22T06:33:06;21.90;1.00
8565;DHT22;4320;51.498;6.556;2023-06-22T06:35:34;22.00;1.00
8565;DHT22;4320;51.498;6.556;2023-06-22T06:38:00;21.90;1.00
8565;DHT22;4320;51.498;6.556;2023-06-22T06:40:26;21.90;1.00
8565;DHT22;4320;51.498;6.556;2023-06-22T06:42:51;22.00;1.00
8565;DHT22;4320;51.498;6.556;2023-06-22T06:45:20;22.10;1.00
8565;DHT22;4320;51.498;6.556;2023-06-22T06:47:48;22.20;1.00
8565;DHT22;4320;51.498;6.556;2023-06-22T06:50:15;22.20;1.00
8565;DHT22;4320;51.498;6.556;2023-06-22T06:52:40;22.10;1.00
8565;DHT22;4320;51.498;6.556;2023-06-22T06:55:07;22.00;1.00
8565;DHT22;4320;51.498;6.556;2023-06-22T06:57:34;22.00;5.90
8565;DHT22;4320;51.498;6.556;2023-06-22T06:59:59;22.00;5.80
8565;DHT22;4320;51.498;6.556;2023-06-22T07:02:25;22.00;5.90
8565;DHT22;4320;51.498;6.556;2023-06-22T07:04:53;22.00;6.00
8565;DHT22;4320;51.498;6.556;2023-06-22T07:07:20;22.10;6.00
8565;DHT22;4320;51.498;6.556;2023-06-22T07:09:46;22.10;6.10
8565;DHT22;4320;51.498;6.556;2023-06-22T07:12:12;22.10;1.00
8565;DHT22;4320;51.498;6.556;2023-06-22T07:14:37;22.20;1.00
8565;DHT22;4320;51.498;6.556;2023-06-22T07:17:03;22.30;1.00
8565;DHT22;4320;51.498;6.556;2023-06-22T07:19:29;22.30;1.00
8565;DHT22;4320;51.498;6.556;2023-06-22T07:21:55;22.50;1.00
8565;DHT22;4320;51.498;6.556;2023-06-22T07:24:21;22.60;1.00
8565;DHT22;4320;51.498;6.556;2023-06-22T07:26:48;22.70;1.00
8565;DHT22;4320;51.498;6.556;2023-06-22T07:29:18;22.60;1.00
8565;DHT22;4320;51.498;6.556;2023-06-22T07:31:44;22.50;1.00
8565;DHT22;4320;51.498;6.556;2023-06-22T07:34:10;22.60;1.00
8565;DHT22;4320;51.498;6.556;2023-06-22T07:36:36;22.60;1.00
8565;DHT22;4320;51.498;6.556;2023-06-22T07:39:04;22.80;1.00
8565;DHT22;4320;51.498;6.556;2023-06-22T07:41:31;22.90;1.00
8565;DHT22;4320;51.498;6.556;2023-06-22T07:43:56;22.90;1.00
8565;DHT22;4320;51.498;6.556;2023-06-22T07:46:22;22.90;1.00
8565;DHT22;4320;51.498;6.556;2023-06-22T07:48:48;23.10;1.00
8565;DHT22;4320;51.498;6.556;2023-06-22T07:51:14;23.10;1.00
8565;DHT22;4320;51.498;6.556;2023-06-22T07:53:44;22.90;1.00
8565;DHT22;4320;51.498;6.556;2023-06-22T07:56:13;22.90;1.00
8565;DHT22;4320;51.498;6.556;2023-06-22T07:58:39;22.80;1.00
8565;DHT22;4320;51.498;6.556;2023-06-22T08:01:04;22.80;1.00
8565;DHT22;4320;51.498;6.556;2023-06-22T08:03:31;22.80;1.00
8565;DHT22;4320;51.498;6.556;2023-06-22T08:05:57;22.80;1.00
8565;DHT22;4320;51.498;6.556;2023-06-22T08:08:23;22.90;1.00
8565;DHT22;4320;51.498;6.556;2023-06-22T08:10:49;22.70;1.00
8565;DHT22;4320;51.498;6.556;2023-06-22T08:13:14;22.70;1.00
8565;DHT22;4320;51.498;6.556;2023-06-22T08:15:40;22.80;1.00
8565;DHT22;4320;51.498;6.556;2023-06-22T08:18:06;23.00;1.00
8565;DHT22;4320;51.498;6.556;2023-06-22T08:20:31;23.10;1.00
8565;DHT22;4320;51.498;6.556;2023-06-22T08:22:57;23.00;1.00
8565;DHT22;4320;51.498;6.556;2023-06-22T08:25:25;23.00;1.00
8565;DHT22;4320;51.498;6.556;2023-06-22T08:27:51;22.90;1.00
8565;DHT22;4320;51.498;6.556;2023-06-22T08:30:17;23.00;1.00
8565;DHT22;4320;51.498;6.556;2023-06-22T08:32:44;23.10;1.00
8565;DHT22;4320;51.498;6.556;2023-06-22T08:35:10;23.10;1.00
8565;DHT22;4320;51.498;6.556;2023-06-22T08:37:36;23.20;1.00
8565;DHT22;4320;51.498;6.556;2023-06-22T08:40:06;23.20;1.00
8565;DHT22;4320;51.498;6.556;2023-06-22T08:42:35;23.10;1.00
8565;DHT22;4320;51.498;6.556;2023-06-22T08:45:01;23.10;1.00
8565;DHT22;4320;51.498;6.556;2023-06-22T08:47:28;23.10;1.00
8565;DHT22;4320;51.498;6.556;2023-06-22T08:49:53;23.00;1.00
8565;DHT22;4320;51.498;6.556;2023-06-22T08:52:19;23.10;1.00
8565;DHT22;4320;51.498;6.556;2023-06-22T08:54:46;23.10;1.00
8565;DHT22;4320;51.498;6.556;2023-06-22T08:57:12;23.00;1.00
8565;DHT22;4320;51.498;6.556;2023-06-22T08:59:37;22.90;1.00
8565;DHT22;4320;51.498;6.556;2023-06-22T09:02:03;23.00;1.00
8565;DHT22;4320;51.498;6.556;2023-06-22T09:04:29;22.90;1.00
8565;DHT22;4320;51.498;6.556;2023-06-22T09:06:54;23.00;1.00
8565;DHT22;4320;51.498;6.556;2023-06-22T09:09:21;22.90;1.00
8565;DHT22;4320;51.498;6.556;2023-06-22T09:11:47;22.90;1.00
8565;DHT22;4320;51.498;6.556;2023-06-22T09:14:12;22.90;1.00
8565;DHT22;4320;51.498;6.556;2023-06-22T09:16:38;23.00;1.00
8565;DHT22;4320;51.498;6.556;2023-06-22T09:19:04;23.00;1.00
8565;DHT22;4320;51.498;6.556;2023-06-22T09:21:30;22.90;1.00
8565;DHT22;4320;51.498;6.556;2023-06-22T09:23:56;22.90;1.00
8565;DHT22;4320;51.498;6.556;2023-06-22T09:26:22;22.90;1.00
8565;DHT22;4320;51.498;6.556;2023-06-22T09:28:50;22.90;1.00
8565;DHT22;4320;51.498;6.556;2023-06-22T09:31:16;22.90;1.00
8565;DHT22;4320;51.498;6.556;2023-06-22T09:33:42;23.10;1.00
8565;DHT22;4320;51.498;6.556;2023-06-22T09:36:08;23.20;1.00
8565;DHT22;4320;51.498;6.556;2023-06-22T09:38:38;23.20;1.00
8565;DHT22;4320;51.498;6.556;2023-06-22T09:41:04;23.20;1.00
8565;DHT22;4320;51.498;6.556;2023-06-22T09:43:31;23.40;1.00
8565;DHT22;4320;51.498;6.556;2023-06-22T09:45:57;23.40;1.00
8565;DHT22;4320;51.498;6.556;2023-06-22T09:48:23;23.50;1.00
8565;DHT22;4320;51.498;6.556;2023-06-22T09:50:49;23.50;1.00
8565;DHT22;4320;51.498;6.556;2023-06-22T09:53:14;23.50;1.00
8565;DHT22;4320;51.498;6.556;2023-06-22T09:55:40;23.50;1.00
8565;DHT22;4320;51.498;6.556;2023-06-22T09:58:06;23.60;1.00
8565;DHT22;4320;51.498;6.556;2023-06-22T10:00:31;23.70;1.00
8565;DHT22;4320;51.498;6.556;2023-06-22T10:02:57;23.80;1.00
8565;DHT22;4320;51.498;6.556;2023-06-22T10:05:23;24.00;1.00
8565;DHT22;4320;51.498;6.556;2023-06-22T10:07:48;24.20;1.00
8565;DHT22;4320;51.498;6.556;2023-06-22T10:10:14;24.40;1.00
8565;DHT22;4320;51.498;6.556;2023-06-22T10:13:08;24.50;1.00
8565;DHT22;4320;51.498;6.556;2023-06-22T10:15:35;24.70;1.00
8565;DHT22;4320;51.498;6.556;2023-06-22T10:18:01;24.80;1.00
8565;DHT22;4320;51.498;6.556;2023-06-22T10:20:26;24.90;1.00
8565;DHT22;4320;51.498;6.556;2023-06-22T10:22:53;24.90;1.00
8565;DHT22;4320;51.498;6.556;2023-06-22T10:25:19;24.90;1.00
8565;DHT22;4320;51.498;6.556;2023-06-22T10:27:45;25.00;1.00
8565;DHT22;4320;51.498;6.556;2023-06-22T10:30:11;25.10;1.00
8565;DHT22;4320;51.498;6.556;2023-06-22T10:32:41;25.00;1.00
8565;DHT22;4320;51.498;6.556;2023-06-22T10:35:10;25.00;1.00
8565;DHT22;4320;51.498;6.556;2023-06-22T10:37:36;25.10;1.00
8565;DHT22;4320;51.498;6.556;2023-06-22T10:40:02;25.20;1.00
8565;DHT22;4320;51.498;6.556;2023-06-22T10:42:29;25.30;1.00
8565;DHT22;4320;51.498;6.556;2023-06-22T10:44:54;25.40;1.00
8565;DHT22;4320;51.498;6.556;2023-06-22T10:47:20;25.40;1.00
8565;DHT22;4320;51.498;6.556;2023-06-22T10:49:46;25.40;1.00
8565;DHT22;4320;51.498;6.556;2023-06-22T10:52:11;25.40;1.00
8565;DHT22;4320;51.498;6.556;2023-06-22T10:54:38;25.30;1.00
8565;DHT22;4320;51.498;6.556;2023-06-22T10:57:04;25.20;1.00
8565;DHT22;4320;51.498;6.556;2023-06-22T10:59:29;25.00;1.00
8565;DHT22;4320;51.498;6.556;2023-06-22T11:01:56;24.90;1.00
8565;DHT22;4320;51.498;6.556;2023-06-22T11:04:23;24.80;1.00
8565;DHT22;4320;51.498;6.556;2023-06-22T11:06:49;24.70;1.00
8565;DHT22;4320;51.498;6.556;2023-06-22T11:09:15;24.60;1.00
8565;DHT22;4320;51.498;6.556;2023-06-22T11:11:51;24.60;1.00
8565;DHT22;4320;51.498;6.556;2023-06-22T11:14:20;24.50;1.00
8565;DHT22;4320;51.498;6.556;2023-06-22T11:16:46;24.60;1.00
8565;DHT22;4320;51.498;6.556;2023-06-22T11:19:12;24.80;1.00
8565;DHT22;4320;51.498;6.556;2023-06-22T11:21:38;24.80;1.00
8565;DHT22;4320;51.498;6.556;2023-06-22T11:24:04;24.70;1.00
8565;DHT22;4320;51.498;6.556;2023-06-22T11:26:29;24.50;1.00
8565;DHT22;4320;51.498;6.556;2023-06-22T11:28:55;24.50;1.00
8565;DHT22;4320;51.498;6.556;2023-06-22T11:31:21;24.60;1.00
8565;DHT22;4320;51.498;6.556;2023-06-22T11:33:47;24.80;1.00
8565;DHT22;4320;51.498;6.556;2023-06-22T11:36:14;24.70;1.00
8565;DHT22;4320;51.498;6.556;2023-06-22T11:38:40;24.60;1.00
8565;DHT22;4320;51.498;6.556;2023-06-22T11:41:09;24.60;1.00
8565;DHT22;4320;51.498;6.556;2023-06-22T11:43:35;24.60;1.00
8565;DHT22;4320;51.498;6.556;2023-06-22T11:46:02;24.50;1.00
8565;DHT22;4320;51.498;6.556;2023-06-22T11:48:28;24.40;1.00
8565;DHT22;4320;51.498;6.556;2023-06-22T11:50:54;24.40;1.00
8565;DHT22;4320;51.498;6.556;2023-06-22T11:53:21;24.20;1.00
8565;DHT22;4320;51.498;6.556;2023-06-22T11:55:47;23.90;1.00
8565;DHT22;4320;51.498;6.556;2023-06-22T11:58:13;23.40;6.80
8565;DHT22;4320;51.498;6.556;2023-06-22T12:00:38;23.00;99.90
8565;DHT22;4320;51.498;6.556;2023-06-22T12:03:04;22.80;99.90
8565;DHT22;4320;51.498;6.556;2023-06-22T12:05:30;22.80;99.90
8565;DHT22;4320;51.498;6.556;2023-06-22T12:07:55;22.80;99.90
8565;DHT22;4320;51.498;6.556;2023-06-22T12:10:22;22.70;99.90
8565;DHT22;4320;51.498;6.556;2023-06-22T12:12:47;22.80;99.90
8565;DHT22;4320;51.498;6.556;2023-06-22T12:15:13;22.80;99.90
8565;DHT22;4320;51.498;6.556;2023-06-22T12:17:39;22.90;99.90
8565;DHT22;4320;51.498;6.556;2023-06-22T12:20:06;22.80;99.90
8565;DHT22;4320;51.498;6.556;2023-06-22T12:22:32;22.80;99.90
8565;DHT22;4320;51.498;6.556;2023-06-22T12:24:58;22.90;99.90
8565;DHT22;4320;51.498;6.556;2023-06-22T12:27:25;23.20;99.90
8565;DHT22;4320;51.498;6.556;2023-06-22T12:29:51;23.50;99.90
8565;DHT22;4320;51.498;6.556;2023-06-22T12:32:17;23.80;99.90
8565;DHT22;4320;51.498;6.556;2023-06-22T12:34:44;24.00;99.90
8565;DHT22;4320;51.498;6.556;2023-06-22T12:37:10;24.30;99.90
8565;DHT22;4320;51.498;6.556;2023-06-22T12:39:35;24.30;99.90
8565;DHT22;4320;51.498;6.556;2023-06-22T12:42:01;24.30;99.90
8565;DHT22;4320;51.498;6.556;2023-06-22T12:44:27;24.30;99.90
8565;DHT22;4320;51.498;6.556;2023-06-22T12:46:52;24.20;99.90
8565;DHT22;4320;51.498;6.556;2023-06-22T12:49:18;24.30;99.90
8565;DHT22;4320;51.498;6.556;2023-06-22T12:51:44;24.40;99.90
8565;DHT22;4320;51.498;6.556;2023-06-22T12:54:11;24.40;99.90
8565;DHT22;4320;51.498;6.556;2023-06-22T12:56:37;24.70;99.90
8565;DHT22;4320;51.498;6.556;2023-06-22T12:59:04;24.80;99.90
8565;DHT22;4320;51.498;6.556;2023-06-22T13:01:30;25.20;99.90
8565;DHT22;4320;51.498;6.556;2023-06-22T13:03:57;25.20;99.90
8565;DHT22;4320;51.498;6.556;2023-06-22T13:06:23;25.20;99.90
8565;DHT22;4320;51.498;6.556;2023-06-22T13:08:48;25.10;99.90
8565;DHT22;4320;51.498;6.556;2023-06-22T13:11:14;25.10;99.90
8565;DHT22;4320;51.498;6.556;2023-06-22T13:13:40;25.00;99.90
8565;DHT22;4320;51.498;6.556;2023-06-22T13:16:06;24.90;99.90
8565;DHT22;4320;51.498;6.556;2023-06-22T13:18:31;24.90;99.90
8565;DHT22;4320;51.498;6.556;2023-06-22T13:20:58;24.50;99.90
8565;DHT22;4320;51.498;6.556;2023-06-22T13:23:25;24.50;99.90
8565;DHT22;4320;51.498;6.556;2023-06-22T13:25:51;24.20;99.90
8565;DHT22;4320;51.498;6.556;2023-06-22T13:28:17;24.00;99.90
8565;DHT22;4320;51.498;6.556;2023-06-22T13:30:42;24.10;99.90
8565;DHT22;4320;51.498;6.556;2023-06-22T13:33:10;24.00;99.90
8565;DHT22;4320;51.498;6.556;2023-06-22T13:35:36;23.80;99.90
8565;DHT22;4320;51.498;6.556;2023-06-22T13:38:03;23.70;99.90
8565;DHT22;4320;51.498;6.556;2023-06-22T13:40:29;23.80;99.90
8565;DHT22;4320;51.498;6.556;2023-06-22T13:42:55;23.90;99.90
8565;DHT22;4320;51.498;6.556;2023-06-22T13:45:21;23.90;99.90
8565;DHT22;4320;51.498;6.556;2023-06-22T13:47:46;23.80;99.90
8565;DHT22;4320;51.498;6.556;2023-06-22T13:50:12;23.60;99.90
8565;DHT22;4320;51.498;6.556;2023-06-22T13:52:38;23.70;99.90
8565;DHT22;4320;51.498;6.556;2023-06-22T13:55:04;23.70;99.90
8565;DHT22;4320;51.498;6.556;2023-06-22T13:57:31;24.00;99.90
8565;DHT22;4320;51.498;6.556;2023-06-22T13:59:56;23.80;99.90
8565;DHT22;4320;51.498;6.556;2023-06-22T14:02:22;23.80;99.90
8565;DHT22;4320;51.498;6.556;2023-06-22T14:04:48;23.80;99.90
8565;DHT22;4320;51.498;6.556;2023-06-22T14:07:13;23.70;99.90
8565;DHT22;4320;51.498;6.556;2023-06-22T14:09:39;23.80;99.90
8565;DHT22;4320;51.498;6.556;2023-06-22T14:12:05;23.80;99.90
8565;DHT22;4320;51.498;6.556;2023-06-22T14:14:32;23.70;99.90
8565;DHT22;4320;51.498;6.556;2023-06-22T14:16:58;23.70;99.90
8565;DHT22;4320;51.498;6.556;2023-06-22T14:19:24;23.70;99.90
8565;DHT22;4320;51.498;6.556;2023-06-22T14:21:50;23.70;99.90
8565;DHT22;4320;51.498;6.556;2023-06-22T14:24:15;23.90;99.90
8565;DHT22;4320;51.498;6.556;2023-06-22T14:26:41;23.90;99.90
8565;DHT22;4320;51.498;6.556;2023-06-22T14:29:06;24.00;99.90
8565;DHT22;4320;51.498;6.556;2023-06-22T14:31:32;24.00;99.90
8565;DHT22;4320;51.498;6.556;2023-06-22T14:33:58;23.90;99.90
8565;DHT22;4320;51.498;6.556;2023-06-22T14:36:23;23.90;99.90
8565;DHT22;4320;51.498;6.556;2023-06-22T14:38:49;24.00;99.90
8565;DHT22;4320;51.498;6.556;2023-06-22T14:41:15;23.90;99.90
8565;DHT22;4320;51.498;6.556;2023-06-22T14:43:49;24.00;99.90
8565;DHT22;4320;51.498;6.556;2023-06-22T14:46:17;24.00;99.90
8565;DHT22;4320;51.498;6.556;2023-06-22T14:48:43;24.00;99.90
8565;DHT22;4320;51.498;6.556;2023-06-22T14:51:09;23.90;99.90
8565;DHT22;4320;51.498;6.556;2023-06-22T14:53:35;23.80;99.90
8565;DHT22;4320;51.498;6.556;2023-06-22T14:56:01;23.70;99.90
8565;DHT22;4320;51.498;6.556;2023-06-22T14:58:28;23.60;99.90
8565;DHT22;4320;51.498;6.556;2023-06-22T15:00:55;23.60;99.90
8565;DHT22;4320;51.498;6.556;2023-06-22T15:03:20;23.50;99.90
8565;DHT22;4320;51.498;6.556;2023-06-22T15:05:51;23.50;99.90
8565;DHT22;4320;51.498;6.556;2023-06-22T15:08:16;23.40;99.90
8565;DHT22;4320;51.498;6.556;2023-06-22T15:10:42;23.40;99.90
8565;DHT22;4320;51.498;6.556;2023-06-22T15:13:07;23.30;99.90
8565;DHT22;4320;51.498;6.556;2023-06-22T15:15:33;23.20;99.90
8565;DHT22;4320;51.498;6.556;2023-06-22T15:17:59;23.10;99.90
8565;DHT22;4320;51.498;6.556;2023-06-22T15:20:24;23.20;99.90
8565;DHT22;4320;51.498;6.556;2023-06-22T15:22:50;23.30;99.90
8565;DHT22;4320;51.498;6.556;2023-06-22T15:25:15;23.30;99.90
8565;DHT22;4320;51.498;6.556;2023-06-22T15:27:41;23.20;99.90
8565;DHT22;4320;51.498;6.556;2023-06-22T15:30:07;23.10;99.90
8565;DHT22;4320;51.498;6.556;2023-06-22T15:32:33;23.10;99.90
8565;DHT22;4320;51.498;6.556;2023-06-22T15:34:58;23.10;99.90
8565;DHT22;4320;51.498;6.556;2023-06-22T15:37:24;23.10;99.90
8565;DHT22;4320;51.498;6.556;2023-06-22T15:39:49;23.00;99.90
8565;DHT22;4320;51.498;6.556;2023-06-22T15:42:16;22.90;99.90
8565;DHT22;4320;51.498;6.556;2023-06-22T15:44:41;23.00;99.90
8565;DHT22;4320;51.498;6.556;2023-06-22T15:47:07;22.90;99.90
8565;DHT22;4320;51.498;6.556;2023-06-22T15:49:32;23.00;99.90
8565;DHT22;4320;51.498;6.556;2023-06-22T15:51:58;22.90;99.90
8565;DHT22;4320;51.498;6.556;2023-06-22T15:54:24;23.00;99.90
8565;DHT22;4320;51.498;6.556;2023-06-22T15:56:49;22.80;99.90
8565;DHT22;4320;51.498;6.556;2023-06-22T15:59:15;22.60;99.90
8565;DHT22;4320;51.498;6.556;2023-06-22T16:01:40;22.30;99.90
8565;DHT22;4320;51.498;6.556;2023-06-22T16:04:06;22.00;99.90
8565;DHT22;4320;51.498;6.556;2023-06-22T16:06:32;21.90;99.90
8565;DHT22;4320;51.498;6.556;2023-06-22T16:08:57;21.90;99.90
8565;DHT22;4320;51.498;6.556;2023-06-22T16:11:23;21.90;99.90
8565;DHT22;4320;51.498;6.556;2023-06-22T16:13:48;22.00;99.90
8565;DHT22;4320;51.498;6.556;2023-06-22T16:16:14;22.00;99.90
8565;DHT22;4320;51.498;6.556;2023-06-22T16:18:42;21.70;99.90
8565;DHT22;4320;51.498;6.556;2023-06-22T16:21:08;21.40;99.90
8565;DHT22;4320;51.498;6.556;2023-06-22T16:23:33;21.10;99.90